Time;durP1;ratioP1;P1;durP2;ratioP2;P2;SDS_P1;SDS_P2;PMS_P1;PMS_P2;Temp;Humidity;BMP_temperature;BMP_pressure;BME280_temperature;BME280_humidity;BME280_pressure;Samples;Min_cycle;Max_cycle;Signal;HPM_P1;HPM_P2
2021/01/14 00:00:15;;;;;;;8.07;6.90;;;;;;;;;;14864757;29;20232;-82
2021/01/14 00:08:00;;;;;;;10.37;7.50;;;;;;;;;;14843920;29;20239;-87
2021/01/14 00:15:28;;;;;;;12.27;8.27;;;;;;;;;;14840443;29;20414;-87
2021/01/14 00:22:54;;;;;;;11.50;8.50;;;;;;;;;;14839714;29;20315;-89
2021/01/14 00:30:27;;;;;;;13.67;10.10;;;2.80;65.20;;;;;;14834367;29;20272;-82
2021/01/14 00:37:55;;;;;;;16.23;12.70;;;;;;;;;;14836862;29;20215;-84
2021/01/14 00:45:25;;;;;;;15.63;12.07;;;;;;;;;;14863972;29;20204;-89
2021/01/14 00:52:56;;;;;;;15.60;11.93;;;;;;;;;;14905425;29;20645;-88
2021/01/14 01:00:28;;;;;;;16.13;12.93;;;;;;;;;;14852525;29;20235;-87
2021/01/14 01:08:00;;;;;;;17.03;13.73;;;;;;;;;;14841036;29;20248;-87
2021/01/14 01:15:31;;;;;;;18.00;13.57;;;;;;;;;;14862903;29;20197;-87
2021/01/14 01:22:59;;;;;;;18.37;13.87;;;;;;;;;;14876515;29;20216;-88
2021/01/14 01:30:28;;;;;;;17.63;13.40;;;;;;;;;;14859702;29;20608;-87
2021/01/14 01:37:55;;;;;;;13.77;9.90;;;;;;;;;;14865147;29;20478;-87
2021/01/14 01:45:22;;;;;;;8.00;5.80;;;;;;;;;;14851255;29;20326;-86
2021/01/14 01:52:51;;;;;;;4.63;3.20;;;;;;;;;;14846604;29;20200;-87
2021/01/14 02:00:21;;;;;;;5.90;2.20;;;;;;;;;;14842797;29;20239;-87
2021/01/14 02:08:00;;;;;;;3.00;1.37;;;5.60;67.80;;;;;;14897354;29;20237;-88
2021/01/14 02:15:28;;;;;;;2.30;1.03;;;;;;;;;;14866565;29;20198;-89
2021/01/14 02:23:08;;;;;;;1.87;1.20;;;5.20;68.00;;;;;;14842913;29;20228;-88
2021/01/14 02:30:39;;;;;;;1.63;1.37;;;;;;;;;;14870981;29;20639;-84
2021/01/14 02:38:06;;;;;;;2.37;1.47;;;;;;;;;;14884497;29;20226;-83
2021/01/14 02:45:33;;;;;;;1.90;1.23;;;;;;;;;;14868992;29;20227;-86
2021/01/14 02:53:01;;;;;;;2.07;1.40;;;;;;;;;;14842290;29;20233;-86
2021/01/14 03:00:28;;;;;;;1.77;1.20;;;;;;;;;;14906701;29;20211;-86
2021/01/14 03:07:55;;;;;;;2.03;1.40;;;;;;;;;;14919890;29;20304;-86
2021/01/14 03:15:23;;;;;;;2.13;1.37;;;;;;;;;;14919503;29;20272;-86
2021/01/14 03:22:50;;;;;;;1.33;1.20;;;;;;;;;;14873412;29;20223;-86
2021/01/14 03:30:19;;;;;;;1.93;1.23;;;;;;;;;;14880041;29;20208;-86
2021/01/14 03:37:47;;;;;;;2.30;1.40;;;;;;;;;;14883781;29;20227;-87
2021/01/14 03:45:14;;;;;;;1.40;1.27;;;;;;;;;;14853867;29;20208;-85
2021/01/14 03:52:42;;;;;;;3.23;1.60;;;;;;;;;;14870387;29;20184;-83
2021/01/14 04:00:10;;;;;;;2.50;1.67;;;;;;;;;;14858524;29;20224;-84
2021/01/14 04:07:40;;;;;;;2.00;1.47;;;;;;;;;;14860158;29;20235;-86
2021/01/14 04:15:08;;;;;;;2.33;1.77;;;;;;;;;;14886766;29;20200;-86
2021/01/14 04:22:37;;;;;;;2.07;1.40;;;;;;;;;;14848982;29;20318;-84
2021/01/14 04:30:07;;;;;;;2.13;1.73;;;;;;;;;;14862788;29;20226;-83
2021/01/14 04:37:37;;;;;;;2.37;1.97;;;;;;;;;;14883247;29;20236;-85
2021/01/14 04:45:07;;;;;;;2.93;2.30;;;;;;;;;;14861908;29;20694;-84
2021/01/14 04:52:42;;;;;;;3.23;2.30;;;5.70;69.20;;;;;;14921427;29;20196;-84
2021/01/14 05:00:13;;;;;;;4.13;2.83;;;;;;;;;;14901908;29;20253;-83
2021/01/14 05:07:47;;;;;;;4.33;3.10;;;;;;;;;;14904669;29;20227;-85
2021/01/14 05:15:16;;;;;;;5.20;3.50;;;;;;;;;;14932483;29;20255;-85
2021/01/14 05:22:47;;;;;;;4.90;4.40;;;;;;;;;;14936826;29;20650;-88
2021/01/14 05:30:14;;;;;;;7.70;5.07;;;;;;;;;;14932510;29;20194;-88
2021/01/14 05:37:42;;;;;;;5.90;5.03;;;;;;;;;;14907682;29;20516;-86
2021/01/14 05:45:27;;;;;;;8.03;7.23;;;3.20;72.50;;;;;;14910929;29;20235;-85
2021/01/14 05:52:54;;;;;;;9.73;8.03;;;;;;;;;;14843337;29;20249;-80
2021/01/14 06:00:22;;;;;;;8.77;7.87;;;;;;;;;;14857842;29;20324;-82
2021/01/14 06:07:50;;;;;;;9.47;8.57;;;;;;;;;;14890985;29;20235;-85
2021/01/14 06:15:17;;;;;;;9.47;7.97;;;;;;;;;;14886724;29;20196;-82
2021/01/14 06:22:45;;;;;;;6.00;5.27;;;;;;;;;;14911191;29;20604;-83
2021/01/14 06:30:16;;;;;;;8.47;6.23;;;;;;;;;;14894764;29;20236;-84
2021/01/14 06:37:47;;;;;;;7.93;6.30;;;;;;;;;;14913819;29;20223;-83
2021/01/14 06:45:19;;;;;;;7.73;6.00;;;;;;;;;;14888421;29;20218;-82
2021/01/14 06:52:49;;;;;;;9.13;5.43;;;;;;;;;;14850869;29;20648;-86
2021/01/14 07:00:22;;;;;;;6.90;4.13;;;;;;;;;;14888922;29;20283;-84
2021/01/14 07:08:05;;;;;;;6.33;3.40;;;6.00;74.60;;;;;;14864494;29;20223;-81
2021/01/14 07:15:44;;;;;;;5.70;3.70;;;4.30;73.20;;;;;;14862337;29;20215;-82
2021/01/14 07:23:13;;;;;;;4.90;3.60;;;;;;;;;;14850815;29;20496;-83
2021/01/14 07:30:40;;;;;;;3.83;3.17;;;;;;;;;;14847988;29;20256;-81
2021/01/14 07:38:08;;;;;;;5.53;3.20;;;;;;;;;;14862691;29;20223;-81
2021/01/14 07:45:35;;;;;;;4.63;3.53;;;;;;;;;;14848236;29;20694;-84
2021/01/14 07:53:15;;;;;;;4.20;3.17;;;;;;;;;;14861521;29;20789;-80
2021/01/14 08:00:58;;;;;;;3.97;3.27;;;6.20;73.50;;;;;;14847512;29;20231;-81
2021/01/14 08:08:30;;;;;;;4.57;3.70;;;;;;;;;;14865660;29;20314;-81
2021/01/14 08:15:59;;;;;;;4.43;3.27;;;;;;;;;;14863939;29;20676;-81
2021/01/14 08:23:27;;;;;;;4.70;2.67;;;;;;;;;;14861443;29;20675;-80
2021/01/14 08:30:59;;;;;;;6.10;2.70;;;;;;;;;;14861464;29;20574;-82
2021/01/14 08:38:27;;;;;;;3.37;2.20;;;3.10;69.30;;;;;;14847596;29;20228;-81
2021/01/14 08:45:54;;;;;;;4.17;1.80;;;;;;;;;;14851660;29;20230;-81
2021/01/14 08:53:32;;;;;;;2.47;1.67;;;;;;;;;;14850173;29;20203;-82
2021/01/14 09:00:59;;;;;;;2.30;1.60;;;;;;;;;;14876230;29;20582;-80
2021/01/14 09:08:27;;;;;;;4.17;2.43;;;;;;;;;;14862206;29;20347;-82
2021/01/14 09:15:56;;;;;;;2.63;1.70;;;;;;;;;;14871492;29;20264;-82
2021/01/14 09:23:27;;;;;;;5.70;2.30;;;;;;;;;;14860160;29;20758;-78
2021/01/14 09:30:56;;;;;;;3.97;1.97;;;;;;;;;;14844918;29;20230;-80
2021/01/14 09:38:24;;;;;;;3.57;1.30;;;;;;;;;;14864804;29;20235;-79
2021/01/14 09:45:56;;;;;;;3.63;1.77;;;;;;;;;;14870606;29;20220;-78
2021/01/14 09:53:26;;;;;;;2.77;1.90;;;;;;;;;;14872253;29;20235;-79
2021/01/14 10:00:55;;;;;;;4.77;2.30;;;;;;;;;;14854424;29;20246;-76
2021/01/14 10:08:24;;;;;;;2.80;2.00;;;;;;;;;;14880486;29;20223;-79
2021/01/14 10:15:54;;;;;;;4.97;2.33;;;;;;;;;;14868338;29;20206;-78
2021/01/14 10:23:25;;;;;;;7.37;2.53;;;;;;;;;;14865140;29;20231;-80
2021/01/14 10:30:54;;;;;;;3.87;2.43;;;;;;;;;;14868685;29;20589;-77
2021/01/14 10:38:21;;;;;;;4.43;1.93;;;;;;;;;;14855157;29;20626;-78
2021/01/14 10:45:51;;;;;;;3.70;2.30;;;5.90;68.40;;;;;;14851000;29;20246;-79
2021/01/14 10:53:26;;;;;;;3.63;2.10;;;;;;;;;;14837396;29;20570;-81
2021/01/14 11:00:55;;;;;;;4.93;2.53;;;;;;;;;;14865281;29;20231;-83
2021/01/14 11:08:41;;;;;;;4.63;2.40;;;;;;;;;;14880551;29;20596;-81
2021/01/14 11:16:09;;;;;;;3.73;2.20;;;;;;;;;;14858783;29;20199;-78
2021/01/14 11:23:36;;;;;;;4.27;2.10;;;;;;;;;;14864828;29;20208;-77
2021/01/14 11:31:05;;;;;;;5.23;2.47;;;;;;;;;;14851261;29;20216;-78
2021/01/14 11:38:32;;;;;;;2.97;1.90;;;;;;;;;;14860449;29;20265;-77
2021/01/14 11:46:04;;;;;;;5.00;2.50;;;;;;;;;;14874897;29;20298;-76
2021/01/14 11:53:34;;;;;;;3.50;2.03;;;;;;;;;;14840569;29;20295;-77
2021/01/14 12:01:03;;;;;;;4.63;2.43;;;;;;;;;;14849473;29;20238;-78
2021/01/14 12:08:30;;;;;;;3.93;2.27;;;;;;;;;;14858128;29;20239;-78
2021/01/14 12:16:00;;;;;;;4.57;2.60;;;;;;;;;;14843485;29;20212;-77
2021/01/14 12:23:27;;;;;;;4.37;2.20;;;;;;;;;;14878412;29;20199;-77
2021/01/14 12:30:54;;;;;;;4.83;2.70;;;;;;;;;;14862057;29;20212;-76
2021/01/14 12:38:23;;;;;;;5.83;2.70;;;;;;;;;;14846468;29;20220;-79
2021/01/14 12:45:58;;;;;;;4.13;2.43;;;4.60;65.60;;;;;;14861406;29;20215;-79
2021/01/14 12:53:27;;;;;;;6.23;2.70;;;;;;;;;;14860303;29;20683;-79
2021/01/14 13:00:54;;;;;;;5.20;2.20;;;;;;;;;;14851885;29;20772;-77
2021/01/14 13:08:22;;;;;;;6.43;2.80;;;;;;;;;;14857435;29;20335;-78
2021/01/14 13:15:54;;;;;;;4.67;2.50;;;;;;;;;;14865411;29;20203;-77
2021/01/14 13:23:24;;;;;;;4.80;2.50;;;;;;;;;;14881959;29;20192;-77
2021/01/14 13:30:54;;;;;;;4.17;2.60;;;;;;;;;;14868621;29;20207;-77
2021/01/14 13:38:23;;;;;;;10.80;5.00;;;;;;;;;;14866819;29;20324;-79
2021/01/14 13:46:01;;;;;;;6.73;2.70;;;;;;;;;;14863350;29;20797;-76
2021/01/14 13:53:36;;;;;;;5.23;2.70;;;5.70;66.70;;;;;;14870231;29;20674;-78
2021/01/14 14:01:06;;;;;;;3.23;2.47;;;;;;;;;;14865211;29;20745;-79
2021/01/14 14:08:36;;;;;;;4.07;2.80;;;;;;;;;;14849876;29;20258;-78
2021/01/14 14:16:03;;;;;;;4.30;2.37;;;;;;;;;;14864239;29;20199;-77
2021/01/14 14:23:31;;;;;;;4.43;2.53;;;;;;;;;;14863926;29;20671;-77
2021/01/14 14:31:02;;;;;;;4.30;2.83;;;;;;;;;;14866526;29;20240;-76
2021/01/14 14:38:32;;;;;;;5.00;2.87;;;;;;;;;;14867882;29;20227;-76
2021/01/14 14:46:00;;;;;;;6.57;2.70;;;3.40;63.60;;;;;;14865653;29;20620;-77
2021/01/14 14:53:31;;;;;;;3.80;3.00;;;;;;;;;;14849682;29;20196;-76
2021/01/14 15:00:58;;;;;;;5.87;3.17;;;;;;;;;;14851785;29;20232;-81
2021/01/14 15:08:27;;;;;;;7.53;3.50;;;;;;;;;;14848986;29;20242;-77
2021/01/14 15:16:05;;;;;;;4.17;3.20;;;;;;;;;;14835405;29;20662;-78
2021/01/14 15:23:54;;;;;;;5.37;2.90;;;;;;;;;;14832506;29;20232;-78
2021/01/14 15:31:27;;;;;;;4.40;3.50;;;;;;;;;;14834874;29;20199;-77
2021/01/14 15:39:00;;;;;;;5.27;3.63;;;;;;;;;;14851145;29;20239;-80
2021/01/14 15:46:32;;;;;;;5.30;3.90;;;;;;;;;;14838909;29;20679;-79
2021/01/14 15:54:01;;;;;;;7.10;4.10;;;;;;;;;;14838716;29;20200;-78
2021/01/14 16:01:28;;;;;;;6.67;4.23;;;;;;;;;;14840447;29;20247;-81
2021/01/14 16:08:55;;;;;;;5.97;4.10;;;;;;;;;;14838415;29;20228;-81
2021/01/14 16:16:24;;;;;;;6.40;4.90;;;;;;;;;;14837046;29;20264;-80
2021/01/14 16:23:51;;;;;;;7.03;4.63;;;3.60;73.20;;;;;;14853163;29;20270;-79
2021/01/14 16:39:52;;;;;;;6.43;4.70;;;;;;;;;;14833656;29;20251;-82
2021/01/14 16:47:20;;;;;;;4.47;4.07;;;;;;;;;;14838288;29;20235;-81
2021/01/14 16:55:02;;;;;;;5.53;4.67;;;;;;;;;;14867517;29;20643;-78
2021/01/14 17:02:42;;;;;;;9.07;5.03;;;;;;;;;;14871555;29;20250;-79
2021/01/14 17:10:13;;;;;;;5.50;4.20;;;;;;;;;;14868784;29;20234;-77
2021/01/14 17:17:41;;;;;;;5.80;4.10;;;;;;;;;;14868818;29;20256;-82
2021/01/14 17:25:18;;;;;;;5.80;4.63;;;;;;;;;;14854236;29;20203;-80
2021/01/14 17:32:46;;;;;;;5.87;4.53;;;;;;;;;;14869120;29;20752;-78
2021/01/14 17:40:15;;;;;;;6.00;5.10;;;;;;;;;;14854370;29;20239;-79
2021/01/14 17:47:50;;;;;;;7.27;5.80;;;;;;;;;;14861295;29;20539;-89
2021/01/14 17:55:25;;;;;;;10.23;6.10;;;;;;;;;;14849281;29;20227;-80
2021/01/14 18:02:52;;;;;;;7.10;5.50;;;;;;;;;;14868734;29;20240;-80
2021/01/14 18:10:20;;;;;;;6.97;5.67;;;;;;;;;;14797671;29;20699;-77
2021/01/14 18:17:50;;;;;;;11.23;5.57;;;;;;;;;;14801469;29;20211;-76
2021/01/14 18:25:18;;;;;;;7.00;5.43;;;;;;;;;;14784945;29;20632;-80
2021/01/14 18:32:47;;;;;;;8.30;5.70;;;;;;;;;;14786895;29;20203;-78
2021/01/14 18:40:15;;;;;;;7.83;6.23;;;;;;;;;;14811270;29;20227;-79
2021/01/14 18:47:42;;;;;;;7.17;5.70;;;4.70;75.70;;;;;;14848071;29;20235;-79
2021/01/14 18:55:10;;;;;;;7.50;5.73;;;;;;;;;;14841006;29;20203;-83
2021/01/14 19:02:40;;;;;;;6.87;5.70;;;;;;;;;;14855018;29;20231;-78
2021/01/14 19:10:08;;;;;;;7.63;6.60;;;;;;;;;;14841113;29;20292;-78
2021/01/14 19:17:46;;;;;;;8.53;6.97;;;;;;;;;;14840658;29;20195;-79
2021/01/14 19:25:14;;;;;;;9.10;6.77;;;;;;;;;;14853472;29;20216;-78
2021/01/14 19:32:42;;;;;;;9.23;7.83;;;;;;;;;;14842094;29;20651;-79
2021/01/14 19:40:12;;;;;;;10.50;7.73;;;;;;;;;;14842928;29;20247;-78
2021/01/14 19:47:39;;;;;;;7.87;6.93;;;;;;;;;;14819508;29;20675;-77
2021/01/14 19:55:06;;;;;;;7.67;6.60;;;;;;;;;;14836108;29;20215;-78
2021/01/14 20:02:35;;;;;;;8.33;6.97;;;;;;;;;;14848178;29;20235;-76
2021/01/14 20:10:02;;;;;;;8.00;7.20;;;;;;;;;;14839878;29;20785;-77
2021/01/14 20:17:31;;;;;;;7.30;6.47;;;;;;;;;;14865707;29;20647;-77
2021/01/14 20:25:00;;;;;;;8.97;6.30;;;;;;;;;;14851657;29;20238;-78
2021/01/14 20:32:27;;;;;;;7.37;6.53;;;;;;;;;;14854164;29;20649;-77
2021/01/14 20:39:54;;;;;;;8.50;5.80;;;;;;;;;;14856818;29;20397;-76
2021/01/14 20:47:22;;;;;;;7.97;6.00;;;;;;;;;;14867729;29;20267;-77
2021/01/14 20:54:49;;;;;;;7.03;5.67;;;;;;;;;;14848681;29;20212;-78
2021/01/14 21:02:16;;;;;;;7.57;6.20;;;;;;;;;;14864487;29;20251;-76
2021/01/14 21:09:46;;;;;;;7.73;5.60;;;;;;;;;;14850509;29;20725;-78
2021/01/14 21:17:20;;;;;;;9.07;5.60;;;;;;;;;;14865969;29;20295;-79
2021/01/14 21:24:48;;;;;;;6.37;5.10;;;;;;;;;;14855881;29;20239;-78
2021/01/14 21:32:18;;;;;;;6.57;5.40;;;;;;;;;;14877603;29;20192;-76
2021/01/14 21:39:45;;;;;;;7.23;5.13;;;;;;;;;;14869822;29;20216;-79
2021/01/14 21:47:13;;;;;;;7.17;5.10;;;;;;;;;;14874262;29;20246;-77
2021/01/14 21:54:42;;;;;;;6.90;5.23;;;;;;;;;;14871356;29;20195;-78
2021/01/14 22:02:09;;;;;;;7.07;5.30;;;;;;;;;;14869558;29;20235;-77
2021/01/14 22:09:36;;;;;;;6.37;5.00;;;4.10;67.80;;;;;;14868996;29;20227;-73
2021/01/14 22:17:03;;;;;;;6.40;5.10;;;;;;;;;;14869998;29;20207;-73
2021/01/14 22:24:31;;;;;;;7.07;5.17;;;;;;;;;;14888312;29;20238;-71
2021/01/14 22:32:06;;;;;;;11.87;6.00;;;3.70;64.20;;;;;;14868483;29;20195;-82
2021/01/14 22:39:34;;;;;;;7.30;5.33;;;;;;;;;;14882511;29;20224;-82
2021/01/14 22:47:07;;;;;;;10.10;6.03;;;;;;;;;;14855048;29;20698;-79
2021/01/14 22:54:34;;;;;;;6.67;4.87;;;;;;;;;;14879890;29;20218;-79
2021/01/14 23:02:02;;;;;;;6.80;5.13;;;;;;;;;;14874337;29;20703;-79
2021/01/14 23:09:32;;;;;;;7.63;5.03;;;;;;;;;;14856845;29;20944;-79
2021/01/14 23:16:59;;;;;;;7.43;5.10;;;;;;;;;;14841104;29;20291;-81
2021/01/14 23:24:26;;;;;;;6.60;4.40;;;;;;;;;;14896173;29;20203;-80
2021/01/14 23:31:54;;;;;;;6.37;4.47;;;;;;;;;;14855439;29;20204;-74
2021/01/14 23:39:21;;;;;;;6.63;4.83;;;;;;;;;;14838441;29;20839;-83
2021/01/14 23:46:48;;;;;;;7.80;5.10;;;;;;;;;;14892531;29;20700;-80
2021/01/14 23:54:16;;;;;;;7.40;5.33;;;;;;;;;;14912054;29;20188;-86
